createdAt,value
2023-01-29T00:01:26.421Z,16.20
2023-01-29T00:03:53.971Z,17.80
2023-01-29T00:06:23.313Z,15.70
2023-01-29T00:08:50.838Z,14.90
2023-01-29T00:11:18.385Z,12.40
2023-01-29T00:13:45.890Z,15.00
2023-01-29T00:16:13.384Z,8.20
2023-01-29T00:18:41.024Z,6.30
2023-01-29T00:21:08.558Z,12.10
2023-01-29T00:23:36.040Z,12.30
2023-01-29T00:26:03.583Z,12.10
2023-01-29T00:28:31.233Z,15.80
2023-01-29T00:30:58.905Z,9.80
2023-01-29T00:33:26.464Z,12.30
2023-01-29T00:35:54.042Z,13.50
2023-01-29T00:38:21.566Z,14.40
2023-01-29T00:41:22.074Z,16.50
2023-01-29T00:44:08.284Z,12.80
2023-01-29T00:46:35.995Z,11.80
2023-01-29T00:49:03.575Z,12.90
2023-01-29T00:51:31.117Z,13.80
2023-01-29T00:53:58.670Z,15.40
2023-01-29T00:56:26.174Z,12.00
2023-01-29T00:58:53.666Z,7.90
2023-01-29T01:01:41.266Z,8.90
2023-01-29T01:04:08.895Z,8.90
2023-01-29T01:06:36.464Z,10.60
2023-01-29T01:09:22.718Z,12.70
2023-01-29T01:11:50.282Z,17.30
2023-01-29T01:14:17.835Z,16.60
2023-01-29T01:16:45.440Z,14.10
2023-01-29T01:19:13.671Z,20.40
2023-01-29T01:21:45.371Z,16.00
2023-01-29T01:24:13.001Z,19.10
2023-01-29T01:26:40.620Z,18.70
2023-01-29T01:29:08.101Z,18.30
2023-01-29T01:31:35.695Z,15.50
2023-01-29T01:34:03.300Z,15.60
2023-01-29T01:36:32.365Z,14.60
2023-01-29T01:39:00.112Z,10.00
2023-01-29T01:41:27.758Z,14.00
2023-01-29T01:43:55.652Z,13.60
2023-01-29T01:46:23.692Z,14.20
2023-01-29T01:48:51.172Z,16.50
2023-01-29T01:51:18.669Z,17.10
2023-01-29T01:53:46.275Z,15.20
2023-01-29T01:56:13.806Z,14.90
2023-01-29T01:58:41.305Z,15.90
2023-01-29T02:01:08.961Z,17.70
2023-01-29T02:03:55.229Z,13.10
2023-01-29T02:06:41.888Z,17.80
2023-01-29T02:09:28.453Z,14.30
2023-01-29T02:11:56.009Z,15.70
2023-01-29T02:14:23.626Z,15.40
2023-01-29T02:16:51.120Z,15.50
2023-01-29T02:19:18.995Z,16.60
2023-01-29T02:21:46.600Z,12.90
2023-01-29T02:24:14.284Z,14.00
2023-01-29T02:26:41.976Z,12.10
2023-01-29T02:29:26.962Z,14.30
2023-01-29T02:31:54.552Z,13.10
2023-01-29T02:34:22.240Z,15.60
2023-01-29T02:36:49.769Z,11.40
2023-01-29T02:39:17.393Z,16.30
2023-01-29T02:41:44.989Z,12.80
2023-01-29T02:44:12.475Z,12.10
2023-01-29T02:46:40.140Z,10.40
2023-01-29T02:49:07.647Z,9.20
2023-01-29T02:51:35.419Z,10.00
2023-01-29T02:54:02.995Z,12.50
2023-01-29T02:56:31.300Z,9.40
2023-01-29T02:58:58.840Z,12.40
2023-01-29T03:01:26.499Z,10.50
2023-01-29T03:03:54.079Z,12.70
2023-01-29T03:06:22.258Z,12.50
2023-01-29T03:08:50.205Z,12.70
2023-01-29T03:11:17.804Z,14.10
2023-01-29T03:13:45.317Z,9.60
2023-01-29T03:16:12.870Z,13.00
2023-01-29T03:18:46.109Z,12.80
2023-01-29T03:21:32.971Z,12.50
2023-01-29T03:24:19.461Z,14.00
2023-01-29T03:27:05.736Z,14.00
2023-01-29T03:29:52.412Z,9.90
2023-01-29T03:32:19.960Z,12.90
2023-01-29T03:34:47.478Z,12.30
2023-01-29T03:37:15.213Z,10.40
2023-01-29T03:39:42.758Z,13.70
2023-01-29T03:42:10.505Z,12.50
2023-01-29T03:44:40.279Z,11.80
2023-01-29T03:47:08.074Z,10.90
2023-01-29T03:49:35.562Z,13.70
2023-01-29T03:52:03.125Z,14.60
2023-01-29T03:54:30.708Z,15.70
2023-01-29T03:56:58.262Z,13.00
2023-01-29T03:59:25.728Z,12.40
2023-01-29T04:01:53.259Z,9.20
2023-01-29T04:04:20.848Z,13.20
2023-01-29T04:06:48.665Z,11.60
2023-01-29T04:09:16.276Z,10.80
2023-01-29T04:11:43.901Z,15.80
2023-01-29T04:14:11.392Z,14.20
2023-01-29T04:16:38.950Z,14.20
2023-01-29T04:19:06.478Z,12.40
2023-01-29T04:21:34.208Z,13.10
2023-01-29T04:24:01.784Z,10.70
2023-01-29T04:26:29.289Z,9.40
2023-01-29T04:28:56.829Z,8.80
2023-01-29T04:31:24.498Z,11.00
2023-01-29T04:33:52.058Z,13.60
2023-01-29T04:36:19.574Z,14.70
2023-01-29T04:38:47.153Z,14.40
2023-01-29T04:41:14.717Z,10.20
2023-01-29T04:43:42.204Z,13.00
2023-01-29T04:46:09.713Z,11.40
2023-01-29T04:48:37.293Z,11.40
2023-01-29T04:51:05.438Z,15.90
2023-01-29T04:53:33.026Z,11.70
2023-01-29T04:56:00.593Z,7.80
2023-01-29T04:58:28.121Z,7.90
2023-01-29T05:00:55.851Z,8.50
2023-01-29T05:03:23.358Z,11.00
2023-01-29T05:05:50.876Z,10.90
2023-01-29T05:08:18.691Z,12.60
2023-01-29T05:10:46.221Z,9.60
2023-01-29T05:13:13.705Z,11.20
2023-01-29T05:15:41.522Z,10.60
2023-01-29T05:18:09.158Z,10.00
2023-01-29T05:20:36.832Z,9.50
2023-01-29T05:23:04.630Z,9.10
2023-01-29T05:25:32.100Z,11.60
2023-01-29T05:28:16.277Z,8.80
2023-01-29T05:30:44.388Z,8.40
2023-01-29T05:33:11.967Z,9.40
2023-01-29T05:35:39.547Z,9.40
2023-01-29T05:38:07.083Z,8.30
2023-01-29T05:40:34.735Z,11.50
2023-01-29T05:43:02.549Z,10.10
2023-01-29T05:45:30.085Z,11.10
2023-01-29T05:47:57.878Z,9.90
2023-01-29T05:50:25.447Z,10.90
2023-01-29T05:52:52.925Z,10.60
2023-01-29T05:55:20.492Z,11.00
2023-01-29T05:57:48.030Z,10.70
2023-01-29T06:00:15.831Z,9.50
2023-01-29T06:02:43.540Z,7.90
2023-01-29T06:05:11.414Z,9.00
2023-01-29T06:07:41.740Z,8.40
2023-01-29T06:10:11.581Z,7.70
2023-01-29T06:12:39.132Z,8.60
2023-01-29T06:15:06.667Z,8.50
2023-01-29T06:17:34.162Z,6.90
2023-01-29T06:20:01.755Z,9.70
2023-01-29T06:22:29.272Z,11.10
2023-01-29T06:24:56.864Z,11.60
2023-01-29T06:27:24.666Z,7.90
2023-01-29T06:29:52.181Z,10.00
2023-01-29T06:32:19.891Z,10.00
2023-01-29T06:34:49.673Z,10.80
2023-01-29T06:37:17.340Z,10.90
2023-01-29T06:39:44.871Z,9.90
2023-01-29T06:42:12.484Z,12.70
2023-01-29T06:44:39.977Z,9.70
2023-01-29T06:47:07.632Z,8.20
2023-01-29T06:49:35.355Z,12.30
2023-01-29T06:52:02.888Z,10.70
2023-01-29T06:54:30.418Z,7.40
2023-01-29T06:56:58.087Z,8.10
2023-01-29T06:59:25.602Z,6.90
2023-01-29T07:01:53.226Z,8.00
2023-01-29T07:04:20.811Z,8.60
2023-01-29T07:06:48.299Z,7.90
2023-01-29T07:09:15.849Z,10.00
2023-01-29T07:11:43.364Z,9.50
2023-01-29T07:14:10.888Z,10.60
2023-01-29T07:16:38.416Z,5.50
2023-01-29T07:19:06.295Z,9.30
2023-01-29T07:21:33.798Z,9.10
2023-01-29T07:24:01.522Z,9.90
2023-01-29T07:26:29.301Z,8.90
2023-01-29T07:28:56.839Z,8.30
2023-01-29T07:31:24.416Z,9.00
2023-01-29T07:33:52.135Z,7.30
2023-01-29T07:36:19.671Z,11.40
2023-01-29T07:38:47.179Z,10.00
2023-01-29T07:41:14.794Z,8.90
2023-01-29T07:43:42.323Z,12.10
2023-01-29T07:46:09.932Z,6.80
2023-01-29T07:48:37.692Z,12.00
2023-01-29T07:51:05.226Z,8.50
2023-01-29T07:53:32.949Z,13.60
2023-01-29T07:56:00.507Z,9.30
2023-01-29T07:58:28.042Z,14.60
2023-01-29T08:00:55.643Z,19.50
2023-01-29T08:03:23.322Z,11.90
2023-01-29T08:05:51.130Z,9.70
2023-01-29T08:08:19.438Z,10.10
2023-01-29T08:10:47.098Z,11.30
2023-01-29T08:13:14.848Z,14.00
2023-01-29T08:15:42.351Z,8.70
2023-01-29T08:18:09.950Z,13.20
2023-01-29T08:20:37.484Z,8.50
2023-01-29T08:23:05.033Z,9.10
2023-01-29T08:25:32.679Z,11.70
2023-01-29T08:28:00.723Z,11.40
2023-01-29T08:30:28.473Z,9.90
2023-01-29T08:32:56.437Z,10.10
2023-01-29T08:35:24.103Z,9.10
2023-01-29T08:37:51.616Z,7.70
2023-01-29T08:40:19.468Z,9.10
2023-01-29T08:42:47.182Z,6.80
2023-01-29T08:45:14.709Z,8.60
2023-01-29T08:47:42.226Z,9.00
2023-01-29T08:50:09.704Z,8.10
2023-01-29T08:52:37.259Z,11.60
2023-01-29T08:55:04.928Z,6.50
2023-01-29T08:57:32.406Z,5.60
2023-01-29T08:59:59.996Z,10.80
2023-01-29T09:02:27.594Z,7.60
2023-01-29T09:04:55.934Z,7.70
2023-01-29T09:07:23.448Z,6.40
2023-01-29T09:09:51.034Z,9.10
2023-01-29T09:12:18.767Z,7.30
2023-01-29T09:14:46.319Z,5.80
2023-01-29T09:17:14.067Z,9.30
2023-01-29T09:19:41.583Z,6.70
2023-01-29T09:22:11.004Z,6.40
2023-01-29T09:24:40.515Z,9.80
2023-01-29T09:27:10.007Z,7.60
2023-01-29T09:29:37.684Z,12.50
2023-01-29T09:32:05.219Z,16.30
2023-01-29T09:34:34.685Z,11.40
2023-01-29T09:37:02.260Z,11.40
2023-01-29T09:39:30.085Z,14.40
2023-01-29T09:41:57.746Z,10.20
2023-01-29T09:44:25.342Z,6.60
2023-01-29T09:46:52.912Z,10.10
2023-01-29T09:49:20.496Z,10.30
2023-01-29T09:51:48.082Z,12.10
2023-01-29T09:54:15.613Z,12.00
2023-01-29T09:56:43.111Z,9.50
2023-01-29T09:59:10.589Z,9.50
2023-01-29T10:01:38.484Z,12.60
2023-01-29T10:04:06.088Z,14.10
2023-01-29T10:06:33.705Z,19.90
2023-01-29T10:09:01.448Z,12.70
2023-01-29T10:11:29.111Z,11.00
2023-01-29T10:13:56.776Z,14.80
2023-01-29T10:16:24.342Z,12.60
2023-01-29T10:18:51.835Z,12.50
2023-01-29T10:21:19.311Z,4.50
2023-01-29T10:23:46.866Z,6.50
2023-01-29T10:26:14.439Z,9.10
2023-01-29T10:28:46.417Z,9.00
2023-01-29T10:31:14.728Z,8.80
2023-01-29T10:33:49.018Z,11.00
2023-01-29T10:36:26.950Z,5.30
2023-01-29T10:38:56.000Z,10.80
2023-01-29T10:41:23.886Z,9.80
2023-01-29T10:43:51.460Z,10.30
2023-01-29T10:46:18.937Z,18.70
2023-01-29T10:48:46.492Z,13.30
2023-01-29T10:51:14.771Z,15.60
2023-01-29T10:53:42.355Z,10.80
2023-01-29T10:56:21.963Z,9.50
2023-01-29T10:58:50.868Z,10.50
2023-01-29T11:01:18.446Z,10.80
2023-01-29T11:03:46.005Z,10.10
2023-01-29T11:06:14.035Z,12.10
2023-01-29T11:08:41.700Z,11.50
2023-01-29T11:11:12.151Z,9.70
2023-01-29T11:13:39.743Z,12.40
2023-01-29T11:16:07.346Z,6.70
2023-01-29T11:18:34.874Z,7.90
2023-01-29T11:21:02.980Z,13.60
2023-01-29T11:23:30.593Z,12.70
2023-01-29T11:25:58.459Z,8.60
2023-01-29T11:28:25.986Z,13.60
2023-01-29T11:30:53.593Z,10.90
2023-01-29T11:33:21.297Z,11.70
2023-01-29T11:35:48.848Z,12.60
2023-01-29T11:38:16.510Z,10.80
2023-01-29T11:40:44.061Z,14.60
2023-01-29T11:43:11.911Z,11.80
2023-01-29T11:45:39.396Z,11.00
2023-01-29T11:48:06.886Z,12.90
2023-01-29T11:50:34.448Z,8.80
2023-01-29T11:53:01.979Z,10.70
2023-01-29T11:55:33.070Z,13.40
2023-01-29T11:58:05.580Z,10.40
2023-01-29T12:00:33.651Z,13.20
2023-01-29T12:03:01.149Z,12.60
2023-01-29T12:05:29.132Z,12.70
2023-01-29T12:07:56.736Z,9.40
2023-01-29T12:10:24.223Z,11.40
2023-01-29T12:12:51.742Z,12.50
2023-01-29T12:15:19.714Z,9.60
2023-01-29T12:17:47.430Z,8.70
2023-01-29T12:20:15.362Z,9.80
2023-01-29T12:22:43.222Z,15.10
2023-01-29T12:25:10.704Z,12.80
2023-01-29T12:27:38.266Z,12.80
2023-01-29T12:30:06.296Z,14.70
2023-01-29T12:32:33.838Z,12.90
2023-01-29T12:35:01.657Z,13.20
2023-01-29T12:37:29.168Z,17.10
2023-01-29T12:39:56.714Z,11.70
2023-01-29T12:42:24.299Z,17.50
2023-01-29T12:44:51.896Z,12.40
2023-01-29T12:47:20.910Z,20.40
2023-01-29T12:49:53.670Z,16.60
2023-01-29T12:52:21.699Z,14.20
2023-01-29T12:54:49.406Z,11.70
2023-01-29T12:57:18.208Z,13.10
2023-01-29T12:59:46.491Z,14.60
2023-01-29T13:02:16.114Z,14.00
2023-01-29T13:04:43.821Z,13.90
2023-01-29T13:07:12.306Z,20.10
2023-01-29T13:09:39.874Z,17.10
2023-01-29T13:12:07.480Z,14.90
2023-01-29T13:14:34.985Z,20.90
2023-01-29T13:17:02.565Z,15.80
2023-01-29T13:19:30.359Z,14.60
2023-01-29T13:21:58.102Z,14.50
2023-01-29T13:24:25.613Z,12.20
2023-01-29T13:26:53.263Z,13.20
2023-01-29T13:29:20.766Z,13.20
2023-01-29T13:31:48.383Z,13.70
2023-01-29T13:34:16.020Z,15.50
2023-01-29T13:36:43.871Z,16.20
2023-01-29T13:39:11.420Z,16.30
2023-01-29T13:41:39.044Z,16.10
2023-01-29T13:44:07.433Z,14.70
2023-01-29T13:46:35.286Z,14.90
2023-01-29T13:49:05.121Z,19.20
2023-01-29T13:51:32.631Z,18.30
2023-01-29T13:54:03.289Z,15.70
2023-01-29T13:56:31.260Z,15.50
2023-01-29T13:58:58.896Z,11.90
2023-01-29T14:01:26.562Z,17.00
2023-01-29T14:04:09.616Z,11.20
2023-01-29T14:06:37.177Z,15.30
2023-01-29T14:09:04.717Z,14.20
2023-01-29T14:11:32.212Z,15.40
2023-01-29T14:13:59.697Z,16.20
2023-01-29T14:16:27.414Z,14.20
2023-01-29T14:18:55.508Z,15.60
2023-01-29T14:21:25.168Z,20.00
2023-01-29T14:23:52.747Z,21.40
2023-01-29T14:26:20.289Z,19.90
2023-01-29T14:28:47.921Z,21.20
2023-01-29T14:31:15.603Z,21.20
2023-01-29T14:33:43.594Z,15.40
2023-01-29T14:36:12.393Z,17.10
2023-01-29T14:38:40.135Z,15.70
2023-01-29T14:41:07.996Z,16.80
2023-01-29T14:43:35.563Z,18.80
2023-01-29T14:46:03.185Z,18.00
2023-01-29T14:48:30.712Z,18.20
2023-01-29T14:50:59.218Z,14.80
2023-01-29T14:53:27.102Z,16.40
2023-01-29T14:55:54.609Z,12.70
2023-01-29T14:58:22.099Z,15.30
2023-01-29T15:00:49.875Z,15.30
2023-01-29T15:03:17.419Z,15.10
2023-01-29T15:05:45.003Z,13.60
2023-01-29T15:08:12.656Z,18.10
2023-01-29T15:10:43.244Z,13.80
2023-01-29T15:13:10.845Z,18.30
2023-01-29T15:15:38.391Z,19.40
2023-01-29T15:18:06.085Z,16.10
2023-01-29T15:20:33.724Z,16.10
2023-01-29T15:23:03.276Z,21.60
2023-01-29T15:25:31.158Z,21.30
2023-01-29T15:27:58.857Z,19.50
2023-01-29T15:30:26.596Z,23.60
2023-01-29T15:32:57.251Z,57.90
2023-01-29T15:35:24.720Z,75.20
2023-01-29T15:37:52.248Z,57.20
2023-01-29T15:40:20.196Z,41.60
2023-01-29T15:42:48.747Z,50.70
2023-01-29T15:45:16.810Z,63.60
2023-01-29T15:47:44.561Z,60.90
2023-01-29T15:50:12.267Z,59.20
2023-01-29T15:52:39.887Z,73.40
2023-01-29T15:55:07.475Z,83.30
2023-01-29T15:57:35.952Z,95.80
2023-01-29T16:00:04.574Z,132.60
2023-01-29T16:02:32.115Z,138.10
2023-01-29T16:04:59.686Z,118.50
2023-01-29T16:07:27.225Z,99.20
2023-01-29T16:09:54.719Z,77.60
2023-01-29T16:12:22.252Z,79.80
2023-01-29T16:14:49.997Z,72.80
2023-01-29T16:17:17.663Z,58.50
2023-01-29T16:19:45.242Z,57.70
2023-01-29T16:22:12.764Z,58.50
2023-01-29T16:24:40.320Z,80.10
2023-01-29T16:27:07.858Z,110.90
2023-01-29T16:29:35.463Z,66.10
2023-01-29T16:32:03.222Z,56.00
2023-01-29T16:34:31.752Z,61.40
2023-01-29T16:36:59.373Z,55.90
2023-01-29T16:39:28.087Z,47.60
2023-01-29T16:41:55.672Z,44.00
2023-01-29T16:44:23.325Z,43.10
2023-01-29T16:46:54.115Z,46.60
2023-01-29T16:49:21.905Z,41.90
2023-01-29T16:51:49.634Z,47.30
2023-01-29T16:54:18.413Z,52.80
2023-01-29T16:56:45.961Z,53.50
2023-01-29T16:59:13.475Z,52.30
2023-01-29T17:01:41.341Z,55.20
2023-01-29T17:04:08.986Z,57.80
2023-01-29T17:06:36.637Z,50.10
2023-01-29T17:09:04.761Z,53.20
2023-01-29T17:11:32.638Z,52.10
2023-01-29T17:14:00.597Z,64.90
2023-01-29T17:16:28.252Z,67.60
2023-01-29T17:18:55.945Z,69.50
2023-01-29T17:21:23.662Z,73.80
2023-01-29T17:23:51.223Z,105.30
2023-01-29T17:26:18.912Z,92.40
2023-01-29T17:28:46.496Z,119.60
2023-01-29T17:31:14.224Z,131.80
2023-01-29T17:33:42.084Z,133.70
2023-01-29T17:36:09.842Z,97.30
2023-01-29T17:38:37.662Z,95.30
2023-01-29T17:41:05.388Z,118.10
2023-01-29T17:43:33.317Z,197.00
2023-01-29T17:46:00.986Z,214.90
2023-01-29T17:48:28.605Z,104.70
2023-01-29T17:50:56.132Z,90.70
2023-01-29T17:53:24.843Z,76.10
2023-01-29T17:55:54.084Z,56.40
2023-01-29T17:58:21.848Z,79.10
2023-01-29T18:00:49.390Z,73.60
2023-01-29T18:03:16.867Z,79.80
2023-01-29T18:05:44.580Z,67.70
2023-01-29T18:08:12.381Z,55.40
2023-01-29T18:10:40.107Z,68.30
2023-01-29T18:13:07.823Z,57.00
2023-01-29T18:15:35.614Z,69.40
2023-01-29T18:18:03.327Z,84.70
2023-01-29T18:20:31.039Z,77.00
2023-01-29T18:22:58.855Z,72.20
2023-01-29T18:25:26.391Z,78.00
2023-01-29T18:27:54.867Z,52.70
2023-01-29T18:30:22.678Z,50.70
2023-01-29T18:32:50.584Z,88.50
2023-01-29T18:35:18.533Z,80.20
2023-01-29T18:37:46.596Z,88.30
2023-01-29T18:40:17.259Z,84.90
2023-01-29T18:42:45.175Z,82.90
2023-01-29T18:45:13.269Z,101.90
2023-01-29T18:47:40.836Z,83.10
2023-01-29T18:50:08.650Z,86.00
2023-01-29T18:52:36.584Z,160.70
2023-01-29T18:55:04.309Z,173.90
2023-01-29T18:58:28.251Z,98.90
2023-01-29T19:00:20.093Z,142.80
2023-01-29T19:02:47.924Z,145.60
2023-01-29T19:05:16.981Z,158.70
2023-01-29T19:07:45.195Z,137.30
2023-01-29T19:10:13.061Z,196.90
2023-01-29T19:12:42.268Z,169.50
2023-01-29T19:15:09.819Z,166.20
2023-01-29T19:17:37.434Z,142.70
2023-01-29T19:20:05.220Z,162.30
2023-01-29T19:22:32.746Z,130.70
2023-01-29T19:25:00.643Z,124.80
2023-01-29T19:27:30.678Z,106.00
2023-01-29T19:29:59.451Z,122.30
2023-01-29T19:32:29.096Z,129.70
2023-01-29T19:34:57.856Z,83.50
2023-01-29T19:37:25.570Z,100.50
2023-01-29T19:39:54.049Z,76.70
2023-01-29T19:42:21.624Z,86.60
2023-01-29T19:44:51.043Z,80.20
2023-01-29T19:47:19.002Z,84.50
2023-01-29T19:49:46.900Z,47.70
2023-01-29T19:52:51.254Z,56.80
2023-01-29T19:55:19.837Z,64.50
2023-01-29T19:57:48.269Z,64.20
2023-01-29T20:00:17.663Z,66.40
2023-01-29T20:02:45.606Z,48.40
2023-01-29T20:05:13.323Z,39.10
2023-01-29T20:07:42.570Z,40.10
2023-01-29T20:10:11.722Z,46.90
2023-01-29T20:12:39.367Z,56.30
2023-01-29T20:15:07.687Z,53.40
2023-01-29T20:17:35.501Z,50.00
2023-01-29T20:20:04.135Z,51.90
2023-01-29T20:22:31.653Z,116.80
2023-01-29T20:25:00.410Z,104.40
2023-01-29T20:27:28.120Z,94.90
2023-01-29T20:29:55.964Z,116.40
2023-01-29T20:32:23.681Z,119.30
2023-01-29T20:34:52.399Z,116.50
2023-01-29T20:37:20.186Z,40.90
2023-01-29T20:39:47.912Z,76.80
2023-01-29T20:42:18.065Z,58.30
2023-01-29T20:44:45.728Z,81.70
2023-01-29T20:47:13.749Z,99.00
2023-01-29T20:49:41.422Z,87.30
2023-01-29T20:52:10.742Z,86.80
2023-01-29T20:54:38.280Z,95.00
2023-01-29T20:57:05.976Z,98.50
2023-01-29T20:59:33.855Z,116.20
2023-01-29T21:02:01.448Z,109.50
2023-01-29T21:04:31.355Z,99.40
2023-01-29T21:06:59.010Z,84.60
2023-01-29T21:09:26.711Z,88.10
2023-01-29T21:11:54.619Z,56.70
2023-01-29T21:14:22.308Z,95.50
2023-01-29T21:16:49.952Z,102.30
2023-01-29T21:19:17.608Z,111.00
2023-01-29T21:21:45.218Z,117.00
2023-01-29T21:24:13.013Z,102.40
2023-01-29T21:26:40.846Z,104.70
2023-01-29T21:29:08.494Z,77.20
2023-01-29T21:31:36.125Z,82.90
2023-01-29T21:34:05.171Z,93.00
2023-01-29T21:36:32.933Z,90.00
2023-01-29T21:39:00.550Z,113.70
2023-01-29T21:41:47.418Z,115.90
2023-01-29T21:44:15.631Z,112.60
2023-01-29T21:46:43.172Z,117.30
2023-01-29T21:49:10.737Z,113.50
2023-01-29T21:51:38.403Z,120.60
2023-01-29T21:54:05.883Z,117.50
2023-01-29T21:56:33.390Z,116.10
2023-01-29T21:59:02.278Z,120.00
2023-01-29T22:01:37.644Z,111.30
2023-01-29T22:04:08.702Z,105.70
2023-01-29T22:06:36.314Z,118.40
2023-01-29T22:09:03.935Z,129.50
2023-01-29T22:11:31.600Z,127.90
2023-01-29T22:14:01.262Z,132.20
2023-01-29T22:16:29.877Z,137.20
2023-01-29T22:18:57.422Z,121.30
2023-01-29T22:21:24.930Z,117.40
2023-01-29T22:23:52.500Z,138.60
2023-01-29T22:26:20.145Z,145.10
2023-01-29T22:28:47.718Z,140.80
2023-01-29T22:31:15.353Z,132.30
2023-01-29T22:33:42.970Z,118.70
2023-01-29T22:36:10.601Z,115.60
2023-01-29T22:38:38.192Z,106.50
2023-01-29T22:41:05.941Z,95.70
2023-01-29T22:43:33.432Z,71.50
2023-01-29T22:46:00.944Z,72.80
2023-01-29T22:48:30.639Z,83.70
2023-01-29T22:51:09.431Z,62.10
2023-01-29T22:53:37.791Z,64.20
2023-01-29T22:56:05.312Z,71.60
2023-01-29T22:58:32.785Z,64.50
2023-01-29T23:01:00.356Z,63.80
2023-01-29T23:03:27.815Z,65.60
2023-01-29T23:05:55.310Z,64.80
2023-01-29T23:08:22.881Z,69.40
2023-01-29T23:10:50.386Z,81.20
2023-01-29T23:13:18.232Z,72.10
2023-01-29T23:15:45.786Z,58.30
2023-01-29T23:18:13.441Z,70.50
2023-01-29T23:20:40.964Z,71.80
2023-01-29T23:23:08.546Z,76.10
2023-01-29T23:25:54.814Z,82.70
2023-01-29T23:28:22.492Z,63.50
2023-01-29T23:30:52.042Z,65.00
2023-01-29T23:33:21.810Z,51.30
2023-01-29T23:35:49.441Z,50.90
2023-01-29T23:38:17.104Z,57.10
2023-01-29T23:40:45.619Z,55.70
2023-01-29T23:43:13.253Z,65.10
2023-01-29T23:45:40.737Z,58.20
2023-01-29T23:48:08.242Z,42.60
2023-01-29T23:50:35.788Z,61.80
2023-01-29T23:53:03.261Z,54.10
2023-01-29T23:55:30.852Z,55.00
2023-01-29T23:57:58.372Z,59.10
